Latest Weather Observations for Redcliffe

IDQ60801

Issued at 6:02 am EST Friday 19 December 2014 (issued every 30 minutes, with the page automatically refreshed every 10 minutes)

About weather observations | Map of weather stations | Latest weather observations for QLD | Other Formats
Station Details ID: 040958 Name: REDCLIFFE Lat: -27.22 Lon: 153.09 Height: 12.6 m
Data from the previous 72 hours. | See also: Recent months at Redcliffe
Date/Time
EST
Temp
°C
App
Temp
°C
Dew
Point
Rel
Hum
%
Delta-T
°C
Wind Press
QNH
hPa
Press
MSL
hPa
Rain
since 9 am
mm
Dir
 
Spd
km/h
Gust
km/h
Spd
kts
Gust
kts
19/06:00am 21.1 22.6 19.0 88 1.3 WNW 9 13 5 7 1011.7 1011.6 13.4
19/05:30am 21.2 22.9 19.3 89 1.2 NW 9 9 5 5 1011.4 1011.3 13.4
19/05:00am 21.1 22.8 19.4 90 1.1 NW 9 13 5 7 1011.5 1011.4 13.4
19/04:30am 21.2 23.0 19.5 90 1.1 NW 9 15 5 8 1011.3 1011.2 13.4
19/04:00am 21.4 23.3 19.7 90 1.1 WNW 9 11 5 6 1011.2 1011.1 13.0
19/03:30am 21.4 22.9 19.7 90 1.1 W 11 13 6 7 1011.4 1011.3 12.6
19/03:00am 21.2 23.3 19.3 89 1.2 WSW 7 9 4 5 1011.4 1011.3 12.4
19/02:30am 21.3 23.4 19.0 87 1.5 W 6 7 3 4 1011.4 1011.3 12.2
19/02:00am 21.5 23.1 19.1 86 1.5 WNW 9 13 5 7 1012.1 1012.0 10.8
19/01:30am 21.9 23.4 19.8 88 1.3 W 11 15 6 8 1012.7 1012.6 10.2
19/01:00am 22.1 22.8 19.6 86 1.6 WNW 15 22 8 12 1012.5 1012.4 8.6
19/12:30am 22.6 24.1 20.5 88 1.4 WNW 13 19 7 10 1012.4 1012.3 6.6
19/12:00am 23.3 24.4 21.2 88 1.4 NW 17 22 9 12 1012.3 1012.2 5.6
 
Date/Time
EST
Temp
°C
App
Temp
°C
Dew
Point
Rel
Hum
%
Delta-T
°C
Wind Press
QNH
hPa
Press
MSL
hPa
Rain
since 9 am
mm
Dir
 
Spd
km/h
Gust
km/h
Spd
kts
Gust
kts
18/11:30pm 23.6 25.1 21.3 87 1.5 NNW 15 20 8 11 1011.8 1011.7 5.4
18/11:00pm 23.5 25.0 21.2 87 1.5 NNW 15 22 8 12 1011.7 1011.6 5.2
18/10:30pm 23.8 26.6 20.9 84 1.9 NW 7 9 4 5 1012.1 1012.0 4.6
18/10:00pm 24.1 27.3 20.4 80 2.4 E 4 9 2 5 1011.3 1011.2 4.0
18/09:30pm 24.4 24.7 20.5 79 2.5 NNE 19 20 10 11 1011.0 1010.9 4.0
18/09:00pm 24.1 25.8 20.2 79 2.5 NNE 11 13 6 7 1010.8 1010.7 4.0
18/08:30pm 24.0 27.5 20.3 80 2.4 SE 2 7 1 4 1011.4 1011.3 4.0
18/08:00pm 23.6 24.3 20.5 83 2.0 SSE 17 22 9 12 1011.0 1010.9 4.0
18/07:30pm 23.4 23.7 20.7 85 1.8 S 20 30 11 16 1010.5 1010.4 4.0
18/07:00pm 23.1 23.3 20.6 86 1.6 SSW 20 26 11 14 1010.6 1010.5 4.0
18/06:30pm 22.8 23.3 20.1 85 1.7 WSW 17 37 9 20 1010.0 1009.9 3.8
18/06:11pm 24.2 22.2 19.9 77 2.8 WSW 30 56 16 30 1009.5 1009.4 0.6
18/06:09pm 24.6 22.7 19.4 73 3.3 WSW 28 56 15 30 1009.3 1009.2 0.4
18/06:00pm 28.1 27.1 18.8 57 6.0 NW 22 37 12 20 1008.8 1008.7 0.0
18/05:56pm 28.1 27.2 20.6 63 4.9 N 26 37 14 20 1008.4 1008.3 0.0
18/05:30pm 28.1 26.1 21.1 65 4.7 N 33 37 18 20 1006.3 1006.2 0.0
18/05:00pm 28.7 25.9 20.2 60 5.6 N 35 39 19 21 1005.8 1005.7 0.0
18/04:30pm 28.8 25.3 20.3 60 5.6 NNE 39 46 21 25 1005.2 1005.1 0.0
18/04:00pm 28.8 25.8 21.3 64 5.0 NNE 39 46 21 25 1005.3 1005.2 0.0
18/03:30pm 29.7 27.7 21.9 63 5.3 NNE 35 41 19 22 1005.6 1005.5 0.0
18/03:00pm 30.2 28.3 22.1 62 5.5 NNE 35 39 19 21 1005.6 1005.5 0.0
18/02:30pm 29.7 28.6 22.4 65 5.0 NE 32 35 17 19 1005.9 1005.8 0.0
18/02:00pm 30.1 28.4 22.5 63 5.2 NE 35 41 19 22 1006.4 1006.3 0.0
18/01:30pm 30.6 30.0 23.3 65 5.0 NE 32 37 17 20 1007.1 1007.0 0.0
18/01:00pm 30.0 29.5 22.2 63 5.3 NE 28 35 15 19 1007.8 1007.7 0.0
18/12:30pm 30.4 30.1 21.8 60 5.8 NE 26 30 14 16 1008.4 1008.3 0.0
18/12:00pm 30.2 29.5 21.0 58 6.1 NE 26 30 14 16 1008.9 1008.8 0.0
18/11:30am 29.5 30.0 20.9 60 5.7 ENE 19 24 10 13 1009.4 1009.3 0.0
18/11:00am 30.5 31.2 18.9 50 7.5 ENE 13 13 7 7 1009.7 1009.6 0.0
18/10:30am 29.9 31.8 20.5 57 6.2 NE 11 13 6 7 1010.2 1010.1 0.0
18/10:00am 28.6 30.6 21.6 66 4.7 NNE 13 17 7 9 1010.9 1010.8 0.0
18/09:30am 27.7 29.3 21.5 69 4.1 NNE 15 17 8 9 1010.9 1010.8 0.0
18/09:00am 28.0 30.9 21.8 69 4.2 NE 9 11 5 6 1011.1 1011.0 1.8
18/08:30am 27.6 30.4 22.3 73 3.6 ENE 11 13 6 7 1011.1 1011.0 1.8
18/08:00am 27.8 33.1 23.0 75 3.3 CALM 0 4 0 2 1011.4 1011.3 1.8
18/07:30am 26.5 29.4 21.0 72 3.6 ESE 7 9 4 5 1011.2 1011.1 1.8
18/07:00am 26.6 28.9 22.0 76 3.1 ENE 13 15 7 8 1011.5 1011.4 1.8
18/06:30am 26.1 29.1 22.0 78 2.7 ENE 9 11 5 6 1011.1 1011.0 1.8
18/06:00am 25.5 28.1 22.0 81 2.3 ENE 11 15 6 8 1010.9 1010.8 1.8
18/05:30am 25.3 26.9 22.2 83 2.1 ENE 17 19 9 10 1010.5 1010.4 1.8
18/05:00am 25.2 26.4 22.1 83 2.1 E 19 22 10 12 1010.0 1009.9 1.8
18/04:30am 24.8 25.1 20.7 78 2.7 NNE 20 32 11 17 1009.5 1009.4 1.8
18/04:00am 24.4 25.8 20.3 78 2.7 W 13 19 7 10 1008.4 1008.3 1.8
18/03:30am 24.5 24.9 21.0 81 2.3 SW 20 30 11 16 1007.8 1007.7 1.8
18/03:00am 25.1 25.5 22.4 85 1.8 SSW 24 35 13 19 1007.8 1007.7 1.8
18/02:30am 25.0 24.2 22.3 85 1.8 S 30 35 16 19 1007.9 1007.8 1.8
18/02:00am 23.9 24.2 20.8 83 2.0 S 20 28 11 15 1009.5 1009.4 1.4
18/01:30am 24.1 25.2 19.6 76 2.9 S 13 19 7 10 1009.4 1009.3 1.0
18/01:00am 23.6 25.7 18.9 75 3.0 WSW 6 9 3 5 1009.3 1009.2 0.8
18/12:30am 26.2 25.9 17.3 58 5.6 ENE 15 17 8 9 1008.8 1008.7 0.0
18/12:00am 26.4 26.0 16.3 53 6.2 S 13 19 7 10 1008.4 1008.3 0.0
 
Date/Time
EST
Temp
°C
App
Temp
°C
Dew
Point
Rel
Hum
%
Delta-T
°C
Wind Press
QNH
hPa
Press
MSL
hPa
Rain
since 9 am
mm
Dir
 
Spd
km/h
Gust
km/h
Spd
kts
Gust
kts
17/11:30pm 26.4 26.3 16.9 56 5.9 NNW 13 17 7 9 1007.2 1007.1 0.0
17/11:00pm 26.3 24.7 16.5 54 6.1 NNW 20 28 11 15 1007.1 1007.0 0.0
17/10:30pm 26.4 25.8 17.5 58 5.6 N 17 22 9 12 1007.2 1007.1 0.0
17/10:00pm 26.9 26.4 17.9 57 5.7 N 17 20 9 11 1007.2 1007.1 0.0
17/09:30pm 27.0 28.1 19.6 64 4.8 N 13 15 7 8 1007.1 1007.0 0.0
17/09:00pm 27.0 29.0 22.2 75 3.2 N 15 20 8 11 1006.5 1006.4 0.0
17/08:30pm 26.9 28.7 23.2 80 2.5 N 19 26 10 14 1006.2 1006.1 0.0
17/08:00pm 26.7 28.9 23.2 81 2.4 N 17 20 9 11 1005.7 1005.6 0.0
17/07:30pm 26.8 27.0 22.8 79 2.7 N 26 30 14 16 1005.7 1005.6 0.0
17/07:00pm 27.0 26.8 22.8 78 2.9 N 28 32 15 17 1005.2 1005.1 0.0
17/06:30pm 27.5 27.5 22.4 73 3.4 NNE 26 30 14 16 1004.4 1004.3 0.0
17/06:00pm 28.1 27.9 22.1 70 4.1 NNE 26 30 14 16 1004.1 1004.0 0.0
17/05:30pm 28.7 29.1 22.4 68 4.3 NE 24 28 13 15 1003.9 1003.8 0.0
17/05:00pm 28.7 28.5 22.7 70 4.1 NE 28 30 15 16 1003.6 1003.5 0.0
17/04:30pm 28.8 28.1 22.5 68 4.3 NNE 30 33 16 18 1003.6 1003.5 0.0
17/04:00pm 29.4 29.0 22.4 66 4.8 NE 28 32 15 17 1003.3 1003.2 0.0
17/03:30pm 29.0 28.5 22.2 66 4.6 NE 28 32 15 17 1003.4 1003.3 0.0
17/03:00pm 30.2 28.6 21.6 60 5.8 NE 32 39 17 21 1003.5 1003.4 0.0
17/02:30pm 31.2 29.5 20.5 53 7.1 NE 30 37 16 20 1003.9 1003.8 0.0
17/02:00pm 33.3 31.1 17.9 40 10.0 NE 26 32 14 17 1004.1 1004.0 0.0
17/01:30pm 33.3 30.6 16.6 36 10.6 NE 26 30 14 16 1004.2 1004.1 0.0
17/01:00pm 33.0 31.4 19.1 43 9.1 NE 26 30 14 16 1004.7 1004.6 0.0
17/12:30pm 32.1 30.7 19.7 48 8.2 NE 26 28 14 15 1005.0 1004.9 0.0
17/12:00pm 30.8 30.2 20.4 54 6.9 NE 24 30 13 16 1005.4 1005.3 0.0
17/11:30am 30.4 30.2 19.7 52 7.0 NE 20 26 11 14 1005.7 1005.6 0.0
17/11:00am 31.7 32.5 20.6 51 7.4 NE 17 19 9 10 1006.1 1006.0 0.0
17/10:30am 30.9 31.2 19.6 51 7.4 NE 17 19 9 10 1006.5 1006.4 0.0
17/10:00am 30.6 31.6 18.7 49 7.7 NE 11 15 6 8 1006.6 1006.5 0.0
17/09:30am 30.0 32.0 20.0 55 6.6 E 9 9 5 5 1006.8 1006.7 0.0
17/09:00am 28.6 30.4 20.3 60 5.5 ESE 11 13 6 7 1007.1 1007.0 0.0
17/08:30am 29.5 32.1 21.2 61 5.5 ESE 9 13 5 7 1007.2 1007.1 0.0
17/08:00am 28.1 30.1 19.1 58 5.8 ESE 7 7 4 4 1007.1 1007.0 0.0
17/07:30am 27.6 29.1 18.9 59 5.6 ESE 9 11 5 6 1007.1 1007.0 0.0
17/07:00am 26.3 27.8 18.9 63 4.7 SE 9 11 5 6 1007.1 1007.0 0.0
17/06:30am 25.9 28.1 19.5 68 4.1 SSW 7 11 4 6 1006.8 1006.7 0.0
17/06:00am 24.3 26.1 19.6 75 3.0 SW 9 13 5 7 1006.7 1006.6 0.0
17/05:30am 23.5 25.3 19.6 79 2.5 W 9 11 5 6 1006.3 1006.2 0.0
17/05:00am 22.7 24.7 19.1 80 2.3 W 7 9 4 5 1005.8 1005.7 0.0
17/04:30am 22.8 24.4 19.2 80 2.3 W 9 11 5 6 1005.6 1005.5 0.0
17/04:00am 23.1 25.3 19.3 79 2.4 WNW 6 11 3 6 1005.3 1005.2 0.0
17/03:30am 23.5 26.6 19.6 79 2.5 NNE 2 7 1 4 1004.9 1004.8 0.0
17/03:00am 23.7 25.1 19.6 78 2.6 NE 11 17 6 9 1004.6 1004.5 0.0
17/02:30am 23.3 25.1 19.5 79 2.4 SSE 9 9 5 5 1005.3 1005.2 0.0
17/02:00am 23.3 25.6 19.5 79 2.4 SSW 6 9 3 5 1005.4 1005.3 0.0
17/01:30am 23.1 25.2 19.3 79 2.4 WSW 7 9 4 5 1006.5 1006.4 0.0
17/01:00am 23.2 24.9 19.4 79 2.4 SW 9 11 5 6 1006.6 1006.5 0.0
17/12:30am 23.3 25.5 19.2 78 2.6 NW 6 9 3 5 1006.8 1006.7 0.0
17/12:00am 23.5 26.5 19.2 77 2.7 S 2 7 1 4 1007.1 1007.0 0.0
 
Date/Time
EST
Temp
°C
App
Temp
°C
Dew
Point
Rel
Hum
%
Delta-T
°C
Wind Press
QNH
hPa
Press
MSL
hPa
Rain
since 9 am
mm
Dir
 
Spd
km/h
Gust
km/h
Spd
kts
Gust
kts
16/11:30pm 23.5 25.1 19.2 77 2.7 SW 9 11 5 6 1007.6 1007.5 0.0
16/11:00pm 24.0 26.2 19.5 76 2.9 NNW 7 13 4 7 1007.9 1007.8 0.0
16/10:30pm 24.5 25.8 20.2 77 2.8 NW 13 20 7 11 1008.7 1008.6 0.0
16/10:00pm 24.4 25.0 20.3 78 2.7 N 17 24 9 13 1007.3 1007.2 0.0
16/09:30pm 24.5 23.8 20.2 77 2.8 N 24 32 13 17 1006.6 1006.5 0.0
16/09:00pm 24.6 23.0 20.1 76 2.9 N 28 33 15 18 1006.3 1006.2 0.0
16/08:30pm 24.6 22.7 20.1 76 2.9 N 30 35 16 19 1006.5 1006.4 0.0
16/08:00pm 24.6 22.6 19.9 75 3.0 N 30 37 16 20 1006.6 1006.5 0.0
16/07:30pm 24.6 21.8 19.4 73 3.3 N 33 37 18 20 1006.6 1006.5 0.0
16/07:00pm 24.7 21.4 19.3 72 3.5 N 35 39 19 21 1006.4 1006.3 0.0
16/06:30pm 24.8 22.2 19.4 72 3.5 NNE 32 35 17 19 1006.2 1006.1 0.0
16/06:00pm 24.8 22.0 19.0 70 3.7 NNE 32 37 17 20 1006.1 1006.0 0.0
16/05:30pm 25.0 22.0 18.7 68 4.0 NNE 32 37 17 20 1005.6 1005.5 0.0
16/05:00pm 25.2 21.9 18.4 66 4.3 NNE 33 39 18 21 1005.2 1005.1 0.0
16/04:30pm 26.0 22.7 18.4 63 4.8 NE 33 37 18 20 1005.1 1005.0 0.0
16/04:00pm 26.6 23.4 18.2 60 5.3 NE 32 37 17 20 1005.5 1005.4 0.0
16/03:30pm 26.7 23.4 18.0 59 5.5 NE 32 37 17 20 1005.6 1005.5 0.0
16/03:00pm 26.0 22.6 17.6 60 5.3 NE 32 37 17 20 1005.9 1005.8 0.0
16/02:30pm 26.7 23.6 18.3 60 5.3 NE 32 35 17 19 1006.4 1006.3 0.0
16/02:00pm 26.3 23.2 17.6 58 5.5 NE 30 35 16 19 1007.3 1007.2 0.0
16/01:30pm 26.6 23.6 17.7 58 5.6 NE 30 33 16 18 1007.5 1007.4 0.0
16/01:00pm 25.8 23.1 16.6 56 5.7 NE 26 32 14 17 1007.9 1007.8 0.0
16/12:30pm 25.3 22.4 16.2 57 5.6 NE 26 28 14 15 1008.1 1008.0 0.0
16/12:00pm 25.8 23.4 16.4 56 5.8 NE 24 28 13 15 1008.5 1008.4 0.0
16/11:30am 26.0 24.1 15.7 53 6.3 NE 20 24 11 13 1009.0 1008.9 0.0
16/11:00am 26.8 25.8 17.6 57 5.8 ENE 19 22 10 12 1009.4 1009.3 0.0
16/10:30am 26.2 25.0 16.2 54 6.1 ENE 17 19 9 10 1009.9 1009.8 0.0
16/10:00am 25.4 24.0 14.5 51 6.5 ENE 15 17 8 9 1010.2 1010.1 0.0
16/09:30am 25.7 24.8 14.8 51 6.5 NE 13 15 7 8 1010.8 1010.7 0.0
16/09:00am 24.6 23.7 15.8 58 5.3 NE 15 17 8 9 1010.8 1010.7 0.0
16/08:30am 25.4 25.7 15.1 53 6.2 E 7 9 4 5 1011.0 1010.9 0.0
16/08:00am 25.3 25.4 16.4 57 5.5 SSE 11 13 6 7 1011.1 1011.0 0.0
16/07:30am 23.9 23.4 14.9 57 5.4 SSE 11 13 6 7 1011.3 1011.2 0.0
16/07:00am 23.1 23.3 15.7 63 4.5 SSE 9 11 5 6 1011.1 1011.0 0.0
16/06:30am 21.5 22.1 15.8 70 3.4 WSW 7 11 4 6 1010.9 1010.8 0.0

Other Formats:

Comma delimited format used in spreadsheet applications
http://www.bom.gov.au/fwo/IDQ60801/IDQ60801.95591.axf

JavaScript Object Notation format (JSON) in row-major order
http://www.bom.gov.au/fwo/IDQ60801/IDQ60801.95591.json